createdAt,value
2019-01-13T00:01:58.303Z,11.57
2019-01-13T00:04:27.692Z,8.77
2019-01-13T00:06:57.179Z,11.40
2019-01-13T00:09:26.855Z,9.90
2019-01-13T00:11:56.344Z,12.07
2019-01-13T00:14:26.887Z,16.70
2019-01-13T00:16:56.425Z,11.30
2019-01-13T00:19:25.919Z,16.00
2019-01-13T00:21:55.403Z,13.53
2019-01-13T00:24:24.838Z,14.90
2019-01-13T00:26:54.227Z,13.67
2019-01-13T00:29:23.734Z,10.37
2019-01-13T00:31:53.274Z,15.70
2019-01-13T00:34:22.668Z,15.63
2019-01-13T00:36:52.068Z,18.90
2019-01-13T00:39:21.598Z,16.43
2019-01-13T00:41:51.174Z,19.83
2019-01-13T00:44:20.562Z,16.30
2019-01-13T00:46:49.995Z,14.77
2019-01-13T00:49:20.047Z,14.03
2019-01-13T00:51:49.646Z,23.20
2019-01-13T00:54:19.234Z,20.27
2019-01-13T00:56:48.610Z,13.27
2019-01-13T00:59:18.131Z,16.77
2019-01-13T01:01:47.674Z,18.23
2019-01-13T01:04:17.079Z,17.57
2019-01-13T01:06:46.593Z,13.97
2019-01-13T01:09:16.183Z,15.97
2019-01-13T01:11:45.595Z,20.33
2019-01-13T01:14:15.163Z,15.27
2019-01-13T01:16:44.763Z,16.73
2019-01-13T01:19:14.211Z,13.23
2019-01-13T01:21:43.617Z,12.13
2019-01-13T01:24:13.162Z,18.73
2019-01-13T01:26:42.754Z,17.37
2019-01-13T01:29:12.147Z,17.97
2019-01-13T01:31:41.590Z,16.27
2019-01-13T01:34:11.097Z,12.97
2019-01-13T01:36:40.585Z,16.40
2019-01-13T01:39:10.018Z,14.47
2019-01-13T01:41:39.474Z,15.60
2019-01-13T01:44:08.933Z,10.00
2019-01-13T01:46:38.512Z,11.53
2019-01-13T01:49:08.028Z,9.97
2019-01-13T01:51:37.530Z,15.60
2019-01-13T01:54:06.976Z,13.20
2019-01-13T01:56:36.364Z,11.37
2019-01-13T01:59:05.950Z,13.20
2019-01-13T02:01:35.498Z,11.93
2019-01-13T02:04:04.891Z,10.63
2019-01-13T02:06:34.411Z,9.67
2019-01-13T02:09:07.649Z,10.83
2019-01-13T02:11:37.139Z,10.20
2019-01-13T02:14:06.577Z,10.57
2019-01-13T02:16:36.044Z,13.07
2019-01-13T02:19:05.547Z,11.37
2019-01-13T02:21:35.058Z,11.03
2019-01-13T02:24:04.647Z,8.60
2019-01-13T02:26:34.128Z,9.93
2019-01-13T02:29:03.511Z,9.17
2019-01-13T02:31:32.941Z,8.53
2019-01-13T02:34:02.449Z,10.73
2019-01-13T02:36:31.931Z,9.67
2019-01-13T02:39:01.378Z,8.87
2019-01-13T02:41:30.771Z,10.30
2019-01-13T02:44:00.266Z,7.80
2019-01-13T02:46:29.959Z,10.33
2019-01-13T02:48:59.349Z,8.80
2019-01-13T02:51:28.747Z,9.63
2019-01-13T02:53:58.427Z,12.23
2019-01-13T02:56:27.941Z,12.33
2019-01-13T02:58:57.382Z,10.97
2019-01-13T03:01:26.793Z,8.33
2019-01-13T03:03:56.345Z,7.13
2019-01-13T03:06:25.743Z,12.57
2019-01-13T03:08:55.461Z,11.23
2019-01-13T03:11:24.961Z,11.67
2019-01-13T03:13:54.392Z,11.30
2019-01-13T03:16:23.819Z,15.17
2019-01-13T03:18:53.937Z,12.37
2019-01-13T03:21:23.437Z,13.23
2019-01-13T03:23:52.912Z,12.43
2019-01-13T03:26:22.306Z,16.83
2019-01-13T03:28:51.800Z,12.83
2019-01-13T03:31:21.344Z,15.23
2019-01-13T03:33:50.726Z,14.00
2019-01-13T03:36:20.131Z,16.20
2019-01-13T03:38:50.508Z,19.27
2019-01-13T03:41:20.012Z,15.20
2019-01-13T03:43:49.389Z,11.60
2019-01-13T03:46:19.069Z,15.67
2019-01-13T03:48:48.931Z,12.73
2019-01-13T03:51:18.331Z,22.20
2019-01-13T03:53:47.864Z,13.53
2019-01-13T03:56:17.369Z,19.43
2019-01-13T03:58:46.766Z,15.57
2019-01-13T04:01:18.661Z,18.07
2019-01-13T04:03:47.413Z,19.93
2019-01-13T04:06:16.931Z,19.20
2019-01-13T04:08:46.414Z,17.60
2019-01-13T04:11:15.880Z,19.47
2019-01-13T04:13:45.364Z,27.17
2019-01-13T04:16:14.928Z,22.43
2019-01-13T04:18:44.331Z,16.33
2019-01-13T04:21:13.781Z,14.73
2019-01-13T04:23:43.428Z,11.80
2019-01-13T04:26:12.816Z,16.20
2019-01-13T04:28:42.313Z,16.83
2019-01-13T04:31:11.857Z,17.00
2019-01-13T04:33:41.261Z,17.53
2019-01-13T04:36:10.689Z,23.30
2019-01-13T04:38:40.223Z,18.30
2019-01-13T04:41:09.726Z,22.13
2019-01-13T04:43:39.199Z,19.67
2019-01-13T04:46:08.678Z,20.23
2019-01-13T04:48:38.183Z,23.97
2019-01-13T04:51:07.707Z,22.57
2019-01-13T04:53:37.281Z,22.83
2019-01-13T04:56:06.701Z,25.63
2019-01-13T04:58:38.738Z,26.67
2019-01-13T05:01:08.280Z,29.07
2019-01-13T05:03:37.680Z,35.57
2019-01-13T05:06:07.186Z,36.87
2019-01-13T05:08:36.626Z,25.63
2019-01-13T05:11:06.037Z,29.83
2019-01-13T05:13:35.563Z,79.30
2019-01-13T05:16:05.212Z,54.33
2019-01-13T05:18:34.606Z,35.70
2019-01-13T05:21:04.006Z,20.27
2019-01-13T05:23:33.549Z,17.80
2019-01-13T05:26:03.045Z,13.80
2019-01-13T05:28:32.442Z,11.83
2019-01-13T05:31:01.863Z,7.87
2019-01-13T05:33:31.360Z,8.87
2019-01-13T05:36:00.916Z,5.87
2019-01-13T05:38:30.355Z,12.43
2019-01-13T05:40:59.760Z,8.90
2019-01-13T05:43:29.295Z,9.33
2019-01-13T05:45:58.813Z,8.33
2019-01-13T05:48:28.199Z,8.63
2019-01-13T05:50:57.717Z,10.20
2019-01-13T05:53:27.248Z,10.43
2019-01-13T05:55:56.779Z,8.73
2019-01-13T05:58:26.798Z,14.23
2019-01-13T06:00:56.434Z,12.77
2019-01-13T06:03:25.903Z,9.67
2019-01-13T06:05:55.681Z,11.17
2019-01-13T06:08:25.118Z,8.33
2019-01-13T06:10:54.535Z,12.63
2019-01-13T06:13:24.024Z,14.53
2019-01-13T06:15:53.672Z,16.67
2019-01-13T06:18:23.066Z,15.53
2019-01-13T06:20:52.459Z,13.20
2019-01-13T06:23:21.984Z,11.77
2019-01-13T06:25:51.416Z,14.50
2019-01-13T06:28:20.919Z,14.13
2019-01-13T06:30:50.654Z,11.20
2019-01-13T06:33:20.073Z,11.67
2019-01-13T06:35:49.500Z,9.77
2019-01-13T06:38:19.076Z,12.37
2019-01-13T06:40:48.564Z,13.27
2019-01-13T06:43:18.062Z,16.43
2019-01-13T06:45:47.638Z,12.13
2019-01-13T06:48:17.149Z,21.43
2019-01-13T06:50:46.659Z,17.50
2019-01-13T06:53:16.507Z,14.67
2019-01-13T06:55:45.926Z,12.00
2019-01-13T06:58:15.430Z,16.33
2019-01-13T07:00:44.981Z,11.50
2019-01-13T07:03:14.417Z,15.17
2019-01-13T07:05:44.154Z,11.60
2019-01-13T07:08:13.597Z,14.30
2019-01-13T07:10:42.996Z,14.60
2019-01-13T07:13:12.459Z,17.10
2019-01-13T07:15:41.981Z,17.20
2019-01-13T07:18:11.370Z,13.10
2019-01-13T07:20:40.761Z,15.93
2019-01-13T07:23:10.296Z,8.90
2019-01-13T07:25:39.779Z,14.87
2019-01-13T07:28:09.173Z,16.93
2019-01-13T07:30:38.599Z,12.57
2019-01-13T07:33:08.076Z,14.73
2019-01-13T07:35:37.632Z,24.83
2019-01-13T07:38:07.191Z,22.03
2019-01-13T07:40:36.665Z,14.00
2019-01-13T07:43:06.272Z,12.83
2019-01-13T07:45:35.926Z,11.60
2019-01-13T07:48:05.482Z,15.70
2019-01-13T07:50:35.048Z,10.73
2019-01-13T07:53:04.818Z,14.50
2019-01-13T07:55:34.356Z,13.33
2019-01-13T07:58:03.981Z,22.03
2019-01-13T08:00:33.005Z,16.33
2019-01-13T08:03:03.329Z,14.03
2019-01-13T08:05:32.770Z,12.43
2019-01-13T08:08:02.301Z,16.40
2019-01-13T08:10:31.872Z,14.47
2019-01-13T08:13:01.405Z,16.57
2019-01-13T08:15:31.039Z,8.33
2019-01-13T08:18:00.511Z,17.00
2019-01-13T08:20:34.195Z,13.13
2019-01-13T08:23:03.774Z,40.47
2019-01-13T08:25:33.315Z,19.37
2019-01-13T08:28:02.788Z,14.10
2019-01-13T08:30:32.200Z,15.17
2019-01-13T08:33:01.699Z,17.97
2019-01-13T08:35:31.425Z,26.50
2019-01-13T08:38:00.890Z,39.00
2019-01-13T08:40:30.356Z,12.27
2019-01-13T08:43:00.075Z,12.63
2019-01-13T08:45:29.680Z,11.60
2019-01-13T08:47:59.138Z,13.10
2019-01-13T08:50:28.738Z,8.27
2019-01-13T08:52:59.064Z,11.50
2019-01-13T08:55:30.083Z,7.23
2019-01-13T08:57:59.685Z,8.03
2019-01-13T09:00:35.803Z,10.20
2019-01-13T09:03:07.062Z,8.30
2019-01-13T09:05:36.619Z,8.77
2019-01-13T09:08:07.124Z,6.90
2019-01-13T09:10:36.769Z,8.80
2019-01-13T09:13:06.315Z,11.50
2019-01-13T09:15:35.792Z,8.13
2019-01-13T09:18:05.659Z,9.33
2019-01-13T09:20:35.239Z,13.13
2019-01-13T09:23:05.340Z,13.50
2019-01-13T09:25:36.649Z,10.37
2019-01-13T09:28:06.922Z,9.13
2019-01-13T09:30:36.530Z,7.07
2019-01-13T09:33:06.254Z,11.77
2019-01-13T09:35:35.745Z,11.23
2019-01-13T09:38:06.745Z,8.17
2019-01-13T09:40:36.865Z,10.00
2019-01-13T09:43:06.962Z,13.80
2019-01-13T09:45:36.681Z,11.47
2019-01-13T09:48:06.339Z,11.37
2019-01-13T09:50:35.750Z,7.90
2019-01-13T09:53:05.762Z,9.80
2019-01-13T09:55:35.358Z,9.23
2019-01-13T09:58:04.919Z,11.93
2019-01-13T10:00:35.929Z,16.13
2019-01-13T10:03:06.657Z,12.90
2019-01-13T10:05:36.258Z,12.30
2019-01-13T10:08:06.416Z,12.47
2019-01-13T10:10:35.923Z,11.77
2019-01-13T10:13:05.498Z,14.27
2019-01-13T10:15:35.134Z,6.87
2019-01-13T10:18:04.656Z,9.87
2019-01-13T10:20:34.035Z,9.40
2019-01-13T10:23:04.654Z,11.13
2019-01-13T10:25:34.120Z,10.20
2019-01-13T10:28:03.828Z,9.90
2019-01-13T10:30:34.082Z,11.97
2019-01-13T10:33:03.708Z,10.17
2019-01-13T10:35:33.212Z,6.43
2019-01-13T10:38:02.744Z,9.70
2019-01-13T10:40:32.674Z,21.20
2019-01-13T10:43:02.479Z,10.03
2019-01-13T10:45:32.018Z,12.43
2019-01-13T10:48:01.605Z,11.73
2019-01-13T10:50:32.407Z,12.13
2019-01-13T10:53:06.751Z,13.20
2019-01-13T10:55:36.167Z,10.10
2019-01-13T10:58:05.924Z,10.93
2019-01-13T11:00:37.140Z,11.33
2019-01-13T11:03:06.974Z,11.83
2019-01-13T11:05:36.686Z,17.47
2019-01-13T11:08:11.425Z,9.97
2019-01-13T11:10:38.413Z,10.77
2019-01-13T11:13:07.813Z,17.77
2019-01-13T11:15:37.275Z,17.93
2019-01-13T11:18:07.278Z,13.67
2019-01-13T11:20:40.569Z,12.53
2019-01-13T11:23:10.656Z,11.90
2019-01-13T11:25:40.140Z,12.60
2019-01-13T11:28:09.677Z,12.87
2019-01-13T11:30:39.371Z,13.87
2019-01-13T11:33:09.763Z,14.07
2019-01-13T11:35:39.363Z,10.90
2019-01-13T11:38:09.634Z,12.00
2019-01-13T11:40:39.464Z,14.17
2019-01-13T11:43:08.916Z,27.73
2019-01-13T11:45:38.733Z,12.80
2019-01-13T11:48:08.221Z,16.77
2019-01-13T11:50:37.626Z,13.33
2019-01-13T11:53:07.259Z,9.27
2019-01-13T11:55:36.778Z,13.27
2019-01-13T11:58:06.299Z,11.13
2019-01-13T12:00:38.784Z,13.37
2019-01-13T12:03:08.375Z,11.30
2019-01-13T12:05:38.173Z,11.80
2019-01-13T12:08:07.877Z,15.10
2019-01-13T12:10:37.373Z,12.43
2019-01-13T12:13:07.771Z,14.97
2019-01-13T12:15:37.291Z,15.70
2019-01-13T12:18:07.376Z,11.50
2019-01-13T12:20:36.792Z,17.47
2019-01-13T12:23:06.406Z,13.77
2019-01-13T12:25:35.920Z,16.33
2019-01-13T12:28:05.822Z,14.43
2019-01-13T12:30:35.451Z,14.57
2019-01-13T12:33:05.553Z,12.50
2019-01-13T12:35:34.998Z,16.40
2019-01-13T12:38:04.853Z,13.47
2019-01-13T12:40:34.399Z,16.13
2019-01-13T12:43:05.592Z,21.53
2019-01-13T12:45:35.086Z,16.40
2019-01-13T12:48:05.006Z,17.27
2019-01-13T12:50:34.610Z,18.27
2019-01-13T12:53:04.294Z,14.20
2019-01-13T12:55:33.840Z,18.37
2019-01-13T12:58:03.324Z,16.80
2019-01-13T13:00:33.041Z,12.33
2019-01-13T13:03:02.444Z,12.67
2019-01-13T13:05:31.970Z,15.60
2019-01-13T13:08:01.416Z,14.17
2019-01-13T13:10:36.592Z,21.83
2019-01-13T13:13:06.823Z,16.60
2019-01-13T13:15:36.417Z,13.77
2019-01-13T13:18:06.028Z,10.87
2019-01-13T13:20:35.668Z,17.17
2019-01-13T13:23:05.373Z,16.80
2019-01-13T13:25:34.964Z,10.43
2019-01-13T13:28:04.617Z,17.43
2019-01-13T13:30:34.042Z,16.00
2019-01-13T13:33:03.647Z,15.00
2019-01-13T13:35:39.678Z,14.27
2019-01-13T13:38:04.701Z,15.83
2019-01-13T13:40:34.231Z,13.40
2019-01-13T13:43:03.763Z,12.40
2019-01-13T13:45:33.194Z,9.13
2019-01-13T13:48:02.811Z,11.87
2019-01-13T13:50:32.516Z,13.77
2019-01-13T13:53:01.926Z,16.03
2019-01-13T13:55:31.391Z,13.57
2019-01-13T13:58:02.326Z,11.83
2019-01-13T14:00:35.151Z,13.97
2019-01-13T14:03:04.777Z,12.37
2019-01-13T14:05:34.406Z,12.60
2019-01-13T14:08:04.500Z,13.23
2019-01-13T14:10:43.878Z,17.63
2019-01-13T14:13:13.732Z,15.90
2019-01-13T14:15:43.138Z,16.23
2019-01-13T14:18:13.147Z,18.97
2019-01-13T14:20:42.763Z,18.70
2019-01-13T14:23:12.170Z,15.93
2019-01-13T14:25:41.665Z,16.80
2019-01-13T14:28:11.077Z,19.17
2019-01-13T14:30:40.479Z,20.30
2019-01-13T14:33:10.197Z,17.10
2019-01-13T14:35:39.795Z,16.50
2019-01-13T14:38:09.312Z,14.00
2019-01-13T14:40:38.879Z,17.53
2019-01-13T14:43:08.383Z,19.17
2019-01-13T14:45:37.874Z,13.83
2019-01-13T14:48:07.330Z,15.13
2019-01-13T14:50:36.764Z,21.47
2019-01-13T14:53:07.983Z,22.73
2019-01-13T14:55:37.535Z,16.50
2019-01-13T14:58:08.300Z,17.90
2019-01-13T15:00:37.726Z,14.07
2019-01-13T15:03:07.565Z,21.63
2019-01-13T15:05:37.038Z,25.27
2019-01-13T15:08:08.110Z,19.17
2019-01-13T15:10:37.659Z,14.70
2019-01-13T15:13:07.100Z,15.93
2019-01-13T15:15:36.600Z,16.90
2019-01-13T15:18:06.892Z,20.87
2019-01-13T15:20:36.387Z,27.53
2019-01-13T15:23:06.121Z,25.77
2019-01-13T15:25:35.610Z,26.27
2019-01-13T15:28:05.344Z,28.30
2019-01-13T15:30:36.976Z,39.63
2019-01-13T15:33:10.072Z,33.20
2019-01-13T15:35:39.620Z,27.03
2019-01-13T15:38:10.240Z,26.37
2019-01-13T15:40:40.214Z,34.83
2019-01-13T15:43:09.666Z,37.73
2019-01-13T15:45:39.269Z,32.23
2019-01-13T15:48:09.437Z,35.13
2019-01-13T15:50:38.975Z,52.70
2019-01-13T15:53:08.584Z,72.87
2019-01-13T15:55:38.185Z,67.20
2019-01-13T15:58:07.780Z,61.60
2019-01-13T16:00:38.474Z,79.03
2019-01-13T16:03:11.424Z,85.30
2019-01-13T16:05:41.036Z,147.63
2019-01-13T16:08:10.610Z,127.57
2019-01-13T16:10:40.499Z,77.60
2019-01-13T16:13:10.116Z,58.73
2019-01-13T16:15:39.825Z,65.40
2019-01-13T16:18:09.965Z,56.23
2019-01-13T16:20:41.393Z,39.23
2019-01-13T16:23:11.064Z,26.63
2019-01-13T16:25:40.806Z,30.07
2019-01-13T16:28:10.229Z,36.13
2019-01-13T16:30:39.755Z,42.77
2019-01-13T16:33:09.456Z,31.33
2019-01-13T16:35:39.558Z,39.13
2019-01-13T16:38:08.991Z,32.43
2019-01-13T16:40:38.618Z,25.67
2019-01-13T16:43:08.161Z,30.47
2019-01-13T16:45:37.689Z,22.20
2019-01-13T16:48:07.626Z,24.67
2019-01-13T16:50:37.068Z,13.57
2019-01-13T16:53:06.729Z,10.17
2019-01-13T16:55:36.306Z,11.83
2019-01-13T16:58:06.268Z,15.00
2019-01-13T17:00:35.896Z,18.10
2019-01-13T17:03:05.944Z,13.90
2019-01-13T17:05:35.785Z,16.33
2019-01-13T17:08:05.539Z,15.23
2019-01-13T17:10:35.152Z,17.37
2019-01-13T17:13:04.576Z,23.53
2019-01-13T17:15:35.623Z,21.43
2019-01-13T17:18:05.819Z,16.83
2019-01-13T17:20:35.459Z,23.53
2019-01-13T17:23:05.135Z,13.27
2019-01-13T17:25:35.358Z,27.53
2019-01-13T17:28:05.176Z,15.03
2019-01-13T17:30:36.028Z,15.30
2019-01-13T17:33:06.178Z,24.53
2019-01-13T17:35:35.726Z,23.70
2019-01-13T17:38:06.137Z,34.90
2019-01-13T17:40:35.918Z,21.20
2019-01-13T17:43:05.590Z,22.90
2019-01-13T17:45:35.552Z,23.60
2019-01-13T17:48:06.341Z,17.73
2019-01-13T17:50:35.757Z,23.07
2019-01-13T17:53:07.786Z,35.40
2019-01-13T17:55:37.549Z,37.27
2019-01-13T17:58:07.136Z,50.83
2019-01-13T18:01:10.369Z,43.30
2019-01-13T18:03:43.168Z,57.10
2019-01-13T18:06:12.664Z,52.93
2019-01-13T18:08:42.571Z,55.63
2019-01-13T18:11:11.977Z,55.00
2019-01-13T18:13:41.502Z,57.43
2019-01-13T18:16:11.213Z,56.20
2019-01-13T18:18:40.953Z,56.87
2019-01-13T18:21:10.366Z,67.90
2019-01-13T18:23:39.960Z,63.47
2019-01-13T18:26:09.482Z,56.43
2019-01-13T18:28:39.037Z,55.13
2019-01-13T18:31:08.664Z,53.33
2019-01-13T18:33:38.123Z,55.80
2019-01-13T18:36:08.032Z,47.77
2019-01-13T18:38:37.654Z,51.07
2019-01-13T18:41:07.155Z,54.60
2019-01-13T18:43:36.580Z,50.60
2019-01-13T18:46:06.851Z,46.87
2019-01-13T18:48:36.456Z,46.23
2019-01-13T18:51:06.206Z,48.00
2019-01-13T18:53:35.666Z,50.13
2019-01-13T18:56:05.119Z,67.07
2019-01-13T18:58:34.788Z,51.40
2019-01-13T19:01:05.165Z,44.23
2019-01-13T19:03:34.581Z,52.83
2019-01-13T19:06:04.033Z,41.10
2019-01-13T19:08:33.646Z,50.27
2019-01-13T19:11:33.931Z,46.03
2019-01-13T19:14:20.199Z,50.97
2019-01-13T19:16:57.098Z,49.03
2019-01-13T19:19:26.685Z,47.53
2019-01-13T19:21:56.195Z,41.10
2019-01-13T19:24:25.618Z,33.80
2019-01-13T19:26:55.090Z,43.03
2019-01-13T19:29:24.611Z,29.27
2019-01-13T19:31:54.166Z,36.87
2019-01-13T19:34:23.651Z,36.53
2019-01-13T19:36:53.068Z,37.37
2019-01-13T19:39:22.922Z,37.13
2019-01-13T19:41:52.489Z,31.33
2019-01-13T19:44:21.904Z,32.13
2019-01-13T19:46:51.431Z,30.17
2019-01-13T19:49:20.902Z,39.53
2019-01-13T19:51:50.340Z,34.87
2019-01-13T19:54:19.859Z,38.70
2019-01-13T19:56:49.421Z,36.90
2019-01-13T19:59:19.952Z,37.57
2019-01-13T20:01:49.795Z,40.17
2019-01-13T20:04:19.409Z,35.90
2019-01-13T20:06:48.975Z,40.47
2019-01-13T20:09:18.406Z,39.03
2019-01-13T20:11:48.008Z,28.40
2019-01-13T20:14:17.583Z,25.23
2019-01-13T20:16:47.120Z,26.30
2019-01-13T20:19:16.743Z,29.57
2019-01-13T20:21:46.799Z,69.50
2019-01-13T20:24:16.355Z,28.27
2019-01-13T20:26:45.826Z,26.37
2019-01-13T20:29:15.346Z,29.37
2019-01-13T20:31:44.868Z,29.57
2019-01-13T20:34:14.380Z,36.00
2019-01-13T20:36:43.787Z,36.60
2019-01-13T20:39:13.287Z,40.37
2019-01-13T20:41:42.827Z,37.50
2019-01-13T20:44:12.248Z,48.50
2019-01-13T20:46:41.683Z,79.47
2019-01-13T20:49:11.595Z,72.20
2019-01-13T20:51:41.137Z,66.73
2019-01-13T20:54:10.556Z,76.20
2019-01-13T20:56:40.018Z,69.30
2019-01-13T20:59:09.536Z,72.27
2019-01-13T21:01:39.093Z,76.67
2019-01-13T21:04:08.600Z,70.00
2019-01-13T21:06:38.500Z,78.47
2019-01-13T21:09:10.645Z,67.77
2019-01-13T21:11:40.180Z,80.73
2019-01-13T21:14:09.695Z,72.93
2019-01-13T21:16:39.200Z,83.73
2019-01-13T21:19:08.655Z,73.17
2019-01-13T21:21:38.110Z,101.53
2019-01-13T21:24:07.605Z,95.87
2019-01-13T21:26:37.288Z,80.23
2019-01-13T21:29:06.804Z,72.03
2019-01-13T21:31:36.275Z,79.47
2019-01-13T21:34:05.955Z,75.47
2019-01-13T21:36:35.449Z,65.07
2019-01-13T21:39:07.138Z,65.10
2019-01-13T21:41:36.822Z,58.47
2019-01-13T21:44:06.436Z,55.50
2019-01-13T21:46:35.941Z,54.90
2019-01-13T21:49:05.442Z,47.37
2019-01-13T21:51:34.847Z,55.60
2019-01-13T21:54:10.700Z,49.73
2019-01-13T21:56:35.633Z,61.63
2019-01-13T21:59:05.105Z,51.50
2019-01-13T22:01:35.628Z,124.17
2019-01-13T22:04:05.675Z,49.83
2019-01-13T22:06:35.143Z,78.90
2019-01-13T22:09:08.828Z,89.80
2019-01-13T22:11:38.289Z,57.00
2019-01-13T22:14:07.908Z,62.27
2019-01-13T22:16:37.428Z,53.30
2019-01-13T22:19:06.902Z,53.07
2019-01-13T22:21:36.412Z,44.37
2019-01-13T22:24:06.003Z,47.10
2019-01-13T22:26:35.623Z,53.20
2019-01-13T22:29:05.565Z,55.37
2019-01-13T22:31:35.048Z,59.87
2019-01-13T22:34:04.559Z,57.93
2019-01-13T22:36:34.461Z,56.33
2019-01-13T22:39:07.820Z,59.23
2019-01-13T22:41:37.586Z,64.60
2019-01-13T22:44:07.020Z,63.63
2019-01-13T22:46:36.459Z,54.87
2019-01-13T22:49:06.228Z,59.60
2019-01-13T22:51:35.739Z,58.97
2019-01-13T22:54:05.171Z,56.07
2019-01-13T22:56:34.784Z,54.23
2019-01-13T22:59:04.994Z,59.40
2019-01-13T23:01:42.684Z,66.33
2019-01-13T23:04:19.207Z,64.67
2019-01-13T23:06:48.738Z,60.97
2019-01-13T23:09:18.166Z,56.00
2019-01-13T23:11:47.568Z,56.13
2019-01-13T23:14:17.126Z,59.43
2019-01-13T23:16:46.753Z,54.87
2019-01-13T23:19:16.157Z,61.23
2019-01-13T23:21:45.615Z,57.07
2019-01-13T23:24:15.175Z,51.77
2019-01-13T23:26:44.649Z,56.40
2019-01-13T23:29:14.109Z,48.33
2019-01-13T23:31:43.555Z,56.33
2019-01-13T23:34:13.086Z,53.63
2019-01-13T23:36:42.648Z,66.90
2019-01-13T23:39:12.071Z,50.77
2019-01-13T23:41:44.453Z,52.97
2019-01-13T23:44:14.004Z,55.20
2019-01-13T23:46:43.406Z,60.33
2019-01-13T23:49:13.204Z,67.03
2019-01-13T23:51:42.899Z,60.60
2019-01-13T23:54:12.295Z,60.80
2019-01-13T23:56:41.748Z,40.83
2019-01-13T23:59:11.325Z,42.83
